This is the latest recevied weather packets stored in our database for station/object K4BHH. If no packets are shown the sender has not sent any weather packets the latest 10 day(s).
| Time | Temp. | Humidity | Pressure | Rain* | Wind** | Luminosity | Snow |
|---|---|---|---|---|---|---|---|
| 1777384753 | 17.78° C | 91% | 1017.9 hPa | 0 mm | - | - | - |
| 1777382288 | 17.22° C | 92% | 1018.3 hPa | 3.81 mm | - | - | - |
| 1777381085 | 17.22° C | 92% | 1017.3 hPa | 8.64 mm | - | - | - |
| 1777376848 | 16.67° C | 93% | 1018.3 hPa | 12.7 mm | - | - | - |
| 1777362899 | 18.89° C | 87% | 1014.6 hPa | 0.76 mm | - | - | - |
| 1777361698 | 19.44° C | 84% | 1014.9 hPa | 0 mm | - | - | - |
| 1777359895 | 20.56° C | 80% | 1014.9 hPa | 0 mm | - | - | - |
| 1777357429 | 22.22° C | 71% | 1014.9 hPa | 0 mm | - | - | - |
| 1777353191 | 23.33° C | 69% | 1014.9 hPa | 0 mm | - | - | - |
| 1777352559 | 23.33° C | 69% | 1014.9 hPa | 0 mm | - | - | - |
| 1777344144 | 23.89° C | 68% | 1014.2 hPa | 0 mm | - | - | - |
| 1777342341 | 23.89° C | 67% | 1014.6 hPa | 0 mm | - | - | - |
| 1777335035 | 25° C | 63% | 1013.5 hPa | 0 mm | - | - | - |
| 1777330797 | 25.56° C | 61% | 1014.2 hPa | 0 mm | - | - | - |
| 1777324788 | 27.22° C | 57% | 1014.2 hPa | 0 mm | - | - | - |
| 1777318146 | 26.11° C | 60% | 1015.9 hPa | 0 mm | - | - | - |
| 1777313907 | 25.56° C | 60% | 1016.3 hPa | 0 mm | - | - | - |
| 1777310239 | 24.44° C | 64% | 1016.6 hPa | 0 mm | - | - | - |
| 1777309036 | 23.33° C | 66% | 1016.9 hPa | 0 mm | - | - | - |
| 1777303533 | 21.67° C | 71% | 1017.3 hPa | 0 mm | - | - | - |
| 1777302932 | 21.67° C | 70% | 1017.3 hPa | 0 mm | - | - | - |
| 1777297522 | 21.11° C | 75% | 1017.3 hPa | 0 mm | - | - | - |
| 1777292682 | 18.89° C | 81% | 1016.6 hPa | 0 mm | - | - | - |
| 1777291480 | 18.89° C | 81% | 1016.3 hPa | 0 mm | - | - | - |
| 1777288445 | 18.33° C | 81% | 1015.6 hPa | 0 mm | - | - | - |
* Rain latest hour (hover to see other rain measurements)
** Current wind speed in m/s (hover to see current wind gust speed)